sensor_id;sensor_type;location;lat;lon;timestamp;temperature;humidity
26479;DHT22;14163;-26.142;27.992;2022-10-17T00:02:06;21.50;99.90
26479;DHT22;14163;-26.142;27.992;2022-10-17T00:04:36;21.50;99.90
26479;DHT22;14163;-26.142;27.992;2022-10-17T00:07:08;21.50;99.90
26479;DHT22;14163;-26.142;27.992;2022-10-17T00:09:40;21.20;99.90
26479;DHT22;14163;-26.142;27.992;2022-10-17T00:12:11;21.30;99.90
26479;DHT22;14163;-26.142;27.992;2022-10-17T00:14:41;21.40;99.90
26479;DHT22;14163;-26.142;27.992;2022-10-17T00:17:11;21.30;99.90
26479;DHT22;14163;-26.142;27.992;2022-10-17T00:19:41;21.50;99.90
26479;DHT22;14163;-26.142;27.992;2022-10-17T00:22:13;21.50;99.90
26479;DHT22;14163;-26.142;27.992;2022-10-17T00:24:43;21.50;99.90
26479;DHT22;14163;-26.142;27.992;2022-10-17T00:27:13;21.50;99.90
26479;DHT22;14163;-26.142;27.992;2022-10-17T00:29:48;21.60;99.90
26479;DHT22;14163;-26.142;27.992;2022-10-17T00:32:18;21.70;99.90
26479;DHT22;14163;-26.142;27.992;2022-10-17T00:34:48;21.80;99.90
26479;DHT22;14163;-26.142;27.992;2022-10-17T00:37:21;22.00;99.90
26479;DHT22;14163;-26.142;27.992;2022-10-17T00:39:52;22.20;99.90
26479;DHT22;14163;-26.142;27.992;2022-10-17T00:42:22;22.20;99.90
26479;DHT22;14163;-26.142;27.992;2022-10-17T00:45:00;22.00;99.90
26479;DHT22;14163;-26.142;27.992;2022-10-17T00:47:31;21.80;99.90
26479;DHT22;14163;-26.142;27.992;2022-10-17T00:50:02;21.60;99.90
26479;DHT22;14163;-26.142;27.992;2022-10-17T00:52:35;21.30;99.90
26479;DHT22;14163;-26.142;27.992;2022-10-17T00:55:11;21.30;99.90
26479;DHT22;14163;-26.142;27.992;2022-10-17T00:57:42;21.20;99.90
26479;DHT22;14163;-26.142;27.992;2022-10-17T01:00:13;21.20;99.90
26479;DHT22;14163;-26.142;27.992;2022-10-17T01:02:44;21.20;99.90
26479;DHT22;14163;-26.142;27.992;2022-10-17T01:05:14;21.10;99.90
26479;DHT22;14163;-26.142;27.992;2022-10-17T01:07:47;21.00;99.90
26479;DHT22;14163;-26.142;27.992;2022-10-17T01:10:18;20.90;99.90
26479;DHT22;14163;-26.142;27.992;2022-10-17T01:12:57;20.70;99.90
26479;DHT22;14163;-26.142;27.992;2022-10-17T01:15:39;20.60;99.90
26479;DHT22;14163;-26.142;27.992;2022-10-17T01:18:20;20.30;99.90
26479;DHT22;14163;-26.142;27.992;2022-10-17T01:27:48;20.00;99.90
26479;DHT22;14163;-26.142;27.992;2022-10-17T01:30:56;20.10;99.90
26479;DHT22;14163;-26.142;27.992;2022-10-17T01:33:32;20.10;99.90
26479;DHT22;14163;-26.142;27.992;2022-10-17T01:36:09;20.20;99.90
26479;DHT22;14163;-26.142;27.992;2022-10-17T01:38:45;20.30;99.90
26479;DHT22;14163;-26.142;27.992;2022-10-17T01:41:23;20.20;99.90
26479;DHT22;14163;-26.142;27.992;2022-10-17T01:43:59;20.10;99.90
26479;DHT22;14163;-26.142;27.992;2022-10-17T01:46:36;20.00;99.90
26479;DHT22;14163;-26.142;27.992;2022-10-17T01:49:07;20.00;99.90
26479;DHT22;14163;-26.142;27.992;2022-10-17T01:51:41;20.00;99.90
26479;DHT22;14163;-26.142;27.992;2022-10-17T01:54:16;20.00;99.90
26479;DHT22;14163;-26.142;27.992;2022-10-17T01:56:50;19.90;99.90
26479;DHT22;14163;-26.142;27.992;2022-10-17T01:59:24;19.70;99.90
26479;DHT22;14163;-26.142;27.992;2022-10-17T02:01:59;19.70;99.90
26479;DHT22;14163;-26.142;27.992;2022-10-17T02:04:29;19.80;99.90
26479;DHT22;14163;-26.142;27.992;2022-10-17T02:07:06;19.60;99.90
26479;DHT22;14163;-26.142;27.992;2022-10-17T02:09:36;19.50;99.90
26479;DHT22;14163;-26.142;27.992;2022-10-17T02:12:31;19.60;99.90
26479;DHT22;14163;-26.142;27.992;2022-10-17T02:15:15;19.60;99.90
26479;DHT22;14163;-26.142;27.992;2022-10-17T02:17:55;19.70;99.90
26479;DHT22;14163;-26.142;27.992;2022-10-17T02:20:32;19.80;99.90
26479;DHT22;14163;-26.142;27.992;2022-10-17T02:23:09;19.80;99.90
26479;DHT22;14163;-26.142;27.992;2022-10-17T02:25:45;19.90;99.90
26479;DHT22;14163;-26.142;27.992;2022-10-17T02:28:21;19.90;99.90
26479;DHT22;14163;-26.142;27.992;2022-10-17T02:30:56;19.90;99.90
26479;DHT22;14163;-26.142;27.992;2022-10-17T02:33:34;20.10;99.90
26479;DHT22;14163;-26.142;27.992;2022-10-17T02:36:10;20.20;99.90
26479;DHT22;14163;-26.142;27.992;2022-10-17T02:38:41;20.20;99.90
26479;DHT22;14163;-26.142;27.992;2022-10-17T02:41:16;20.20;99.90
26479;DHT22;14163;-26.142;27.992;2022-10-17T02:43:47;20.10;99.90
26479;DHT22;14163;-26.142;27.992;2022-10-17T02:46:19;20.10;99.90
26479;DHT22;14163;-26.142;27.992;2022-10-17T02:48:55;20.00;99.90
26479;DHT22;14163;-26.142;27.992;2022-10-17T02:51:31;19.90;99.90
26479;DHT22;14163;-26.142;27.992;2022-10-17T02:54:07;19.90;99.90
26479;DHT22;14163;-26.142;27.992;2022-10-17T02:56:41;19.90;99.90
26479;DHT22;14163;-26.142;27.992;2022-10-17T02:59:15;19.80;99.90
26479;DHT22;14163;-26.142;27.992;2022-10-17T03:01:46;19.80;99.90
26479;DHT22;14163;-26.142;27.992;2022-10-17T03:04:20;19.80;99.90
26479;DHT22;14163;-26.142;27.992;2022-10-17T03:06:49;19.60;99.90
26479;DHT22;14163;-26.142;27.992;2022-10-17T03:09:19;19.50;99.90
26479;DHT22;14163;-26.142;27.992;2022-10-17T03:11:49;19.40;99.90
26479;DHT22;14163;-26.142;27.992;2022-10-17T03:14:19;19.30;99.90
26479;DHT22;14163;-26.142;27.992;2022-10-17T03:16:49;19.30;99.90
26479;DHT22;14163;-26.142;27.992;2022-10-17T03:19:21;19.30;99.90
26479;DHT22;14163;-26.142;27.992;2022-10-17T03:21:51;19.20;99.90
26479;DHT22;14163;-26.142;27.992;2022-10-17T03:24:22;19.10;99.90
26479;DHT22;14163;-26.142;27.992;2022-10-17T03:26:52;19.10;99.90
26479;DHT22;14163;-26.142;27.992;2022-10-17T03:29:22;19.10;99.90
26479;DHT22;14163;-26.142;27.992;2022-10-17T03:31:52;19.20;99.90
26479;DHT22;14163;-26.142;27.992;2022-10-17T03:34:24;19.20;99.90
26479;DHT22;14163;-26.142;27.992;2022-10-17T03:36:54;19.10;99.90
26479;DHT22;14163;-26.142;27.992;2022-10-17T03:39:24;19.20;99.90
26479;DHT22;14163;-26.142;27.992;2022-10-17T03:41:54;19.20;99.90
26479;DHT22;14163;-26.142;27.992;2022-10-17T03:44:23;19.30;99.90
26479;DHT22;14163;-26.142;27.992;2022-10-17T03:46:53;19.50;99.90
26479;DHT22;14163;-26.142;27.992;2022-10-17T03:49:24;19.60;99.90
26479;DHT22;14163;-26.142;27.992;2022-10-17T03:51:54;19.70;99.90
26479;DHT22;14163;-26.142;27.992;2022-10-17T03:54:23;19.80;99.90
26479;DHT22;14163;-26.142;27.992;2022-10-17T03:56:52;20.00;99.90
26479;DHT22;14163;-26.142;27.992;2022-10-17T03:59:21;20.20;99.90
26479;DHT22;14163;-26.142;27.992;2022-10-17T04:01:50;20.40;99.90
26479;DHT22;14163;-26.142;27.992;2022-10-17T04:04:20;20.60;99.90
26479;DHT22;14163;-26.142;27.992;2022-10-17T04:06:51;20.70;99.90
26479;DHT22;14163;-26.142;27.992;2022-10-17T04:09:21;20.80;99.90
26479;DHT22;14163;-26.142;27.992;2022-10-17T04:11:51;20.90;99.90
26479;DHT22;14163;-26.142;27.992;2022-10-17T04:14:20;21.00;99.90
26479;DHT22;14163;-26.142;27.992;2022-10-17T04:16:49;21.00;99.90
26479;DHT22;14163;-26.142;27.992;2022-10-17T04:19:19;21.00;99.90
26479;DHT22;14163;-26.142;27.992;2022-10-17T04:21:50;21.00;99.90
26479;DHT22;14163;-26.142;27.992;2022-10-17T04:24:19;21.00;99.90
26479;DHT22;14163;-26.142;27.992;2022-10-17T04:26:49;21.00;99.90
26479;DHT22;14163;-26.142;27.992;2022-10-17T04:29:19;21.10;99.90
26479;DHT22;14163;-26.142;27.992;2022-10-17T04:31:49;21.00;99.90
26479;DHT22;14163;-26.142;27.992;2022-10-17T04:34:19;21.00;99.90
26479;DHT22;14163;-26.142;27.992;2022-10-17T04:36:48;20.90;99.90
26479;DHT22;14163;-26.142;27.992;2022-10-17T04:39:19;20.70;99.90
26479;DHT22;14163;-26.142;27.992;2022-10-17T04:41:49;20.70;99.90
26479;DHT22;14163;-26.142;27.992;2022-10-17T04:44:19;20.80;99.90
26479;DHT22;14163;-26.142;27.992;2022-10-17T04:46:48;20.90;99.90
26479;DHT22;14163;-26.142;27.992;2022-10-17T04:49:18;20.90;99.90
26479;DHT22;14163;-26.142;27.992;2022-10-17T04:51:48;20.80;99.90
26479;DHT22;14163;-26.142;27.992;2022-10-17T04:54:20;20.60;99.90
26479;DHT22;14163;-26.142;27.992;2022-10-17T04:56:49;20.50;99.90
26479;DHT22;14163;-26.142;27.992;2022-10-17T04:59:19;20.50;99.90
26479;DHT22;14163;-26.142;27.992;2022-10-17T05:01:49;20.60;99.90
26479;DHT22;14163;-26.142;27.992;2022-10-17T05:04:18;20.70;99.90
26479;DHT22;14163;-26.142;27.992;2022-10-17T05:06:47;20.60;99.90
26479;DHT22;14163;-26.142;27.992;2022-10-17T05:09:16;20.70;99.90
26479;DHT22;14163;-26.142;27.992;2022-10-17T05:11:47;20.80;99.90
26479;DHT22;14163;-26.142;27.992;2022-10-17T05:14:16;20.80;99.90
26479;DHT22;14163;-26.142;27.992;2022-10-17T05:16:45;20.80;99.90
26479;DHT22;14163;-26.142;27.992;2022-10-17T05:19:15;20.80;99.90
26479;DHT22;14163;-26.142;27.992;2022-10-17T05:21:44;21.00;99.90
26479;DHT22;14163;-26.142;27.992;2022-10-17T05:24:14;21.20;99.90
26479;DHT22;14163;-26.142;27.992;2022-10-17T05:26:43;21.50;99.90
26479;DHT22;14163;-26.142;27.992;2022-10-17T05:29:15;21.60;99.90
26479;DHT22;14163;-26.142;27.992;2022-10-17T05:31:44;21.70;99.90
26479;DHT22;14163;-26.142;27.992;2022-10-17T05:34:13;21.70;99.90
26479;DHT22;14163;-26.142;27.992;2022-10-17T05:36:42;21.80;99.90
26479;DHT22;14163;-26.142;27.992;2022-10-17T05:39:12;22.00;99.90
26479;DHT22;14163;-26.142;27.992;2022-10-17T05:41:45;22.10;99.90
26479;DHT22;14163;-26.142;27.992;2022-10-17T05:44:19;22.20;99.90
26479;DHT22;14163;-26.142;27.992;2022-10-17T05:46:48;22.30;99.90
26479;DHT22;14163;-26.142;27.992;2022-10-17T05:49:18;22.50;99.90
26479;DHT22;14163;-26.142;27.992;2022-10-17T05:51:48;22.50;99.90
26479;DHT22;14163;-26.142;27.992;2022-10-17T05:54:17;22.60;99.90
26479;DHT22;14163;-26.142;27.992;2022-10-17T05:56:51;22.60;99.90
26479;DHT22;14163;-26.142;27.992;2022-10-17T05:59:24;22.60;99.90
26479;DHT22;14163;-26.142;27.992;2022-10-17T06:01:54;22.70;99.90
26479;DHT22;14163;-26.142;27.992;2022-10-17T06:04:23;22.80;99.90
26479;DHT22;14163;-26.142;27.992;2022-10-17T06:06:53;22.90;99.90
26479;DHT22;14163;-26.142;27.992;2022-10-17T06:09:23;23.00;99.90
26479;DHT22;14163;-26.142;27.992;2022-10-17T06:11:53;23.00;99.90
26479;DHT22;14163;-26.142;27.992;2022-10-17T06:14:25;23.00;99.90
26479;DHT22;14163;-26.142;27.992;2022-10-17T06:16:54;23.00;99.90
26479;DHT22;14163;-26.142;27.992;2022-10-17T06:19:24;23.10;99.90
26479;DHT22;14163;-26.142;27.992;2022-10-17T06:21:53;23.20;99.90
26479;DHT22;14163;-26.142;27.992;2022-10-17T06:24:23;23.20;99.90
26479;DHT22;14163;-26.142;27.992;2022-10-17T06:26:53;23.30;99.90
26479;DHT22;14163;-26.142;27.992;2022-10-17T06:29:25;23.40;99.90
26479;DHT22;14163;-26.142;27.992;2022-10-17T06:31:56;23.50;99.90
26479;DHT22;14163;-26.142;27.992;2022-10-17T06:34:25;23.50;99.90
26479;DHT22;14163;-26.142;27.992;2022-10-17T06:36:55;23.60;99.90
26479;DHT22;14163;-26.142;27.992;2022-10-17T06:39:25;23.70;99.90
26479;DHT22;14163;-26.142;27.992;2022-10-17T06:41:59;23.80;99.90
26479;DHT22;14163;-26.142;27.992;2022-10-17T06:44:31;23.80;99.90
26479;DHT22;14163;-26.142;27.992;2022-10-17T06:47:01;23.90;99.90
26479;DHT22;14163;-26.142;27.992;2022-10-17T06:49:31;24.00;99.90
26479;DHT22;14163;-26.142;27.992;2022-10-17T06:52:01;24.00;99.90
26479;DHT22;14163;-26.142;27.992;2022-10-17T06:54:31;24.10;99.90
26479;DHT22;14163;-26.142;27.992;2022-10-17T06:57:00;24.20;99.90
26479;DHT22;14163;-26.142;27.992;2022-10-17T06:59:32;24.20;99.90
26479;DHT22;14163;-26.142;27.992;2022-10-17T07:02:01;24.30;99.90
26479;DHT22;14163;-26.142;27.992;2022-10-17T07:04:31;24.30;99.90
26479;DHT22;14163;-26.142;27.992;2022-10-17T07:07:00;24.30;99.90
26479;DHT22;14163;-26.142;27.992;2022-10-17T07:09:30;24.40;99.90
26479;DHT22;14163;-26.142;27.992;2022-10-17T07:12:00;24.40;99.90
26479;DHT22;14163;-26.142;27.992;2022-10-17T07:14:31;24.50;99.90
26479;DHT22;14163;-26.142;27.992;2022-10-17T07:17:01;24.50;99.90
26479;DHT22;14163;-26.142;27.992;2022-10-17T07:19:30;24.70;99.90
26479;DHT22;14163;-26.142;27.992;2022-10-17T07:22:00;24.70;99.90
26479;DHT22;14163;-26.142;27.992;2022-10-17T07:24:29;24.70;99.90
26479;DHT22;14163;-26.142;27.992;2022-10-17T07:26:59;24.80;99.90
26479;DHT22;14163;-26.142;27.992;2022-10-17T07:29:30;24.90;99.90
26479;DHT22;14163;-26.142;27.992;2022-10-17T07:32:00;25.00;99.90
26479;DHT22;14163;-26.142;27.992;2022-10-17T07:34:33;25.00;99.90
26479;DHT22;14163;-26.142;27.992;2022-10-17T07:37:03;25.00;99.90
26479;DHT22;14163;-26.142;27.992;2022-10-17T07:39:33;24.90;99.90
26479;DHT22;14163;-26.142;27.992;2022-10-17T07:42:05;25.00;99.90
26479;DHT22;14163;-26.142;27.992;2022-10-17T07:44:38;25.00;99.90
26479;DHT22;14163;-26.142;27.992;2022-10-17T07:47:07;25.00;99.90
26479;DHT22;14163;-26.142;27.992;2022-10-17T07:49:37;25.00;99.90
26479;DHT22;14163;-26.142;27.992;2022-10-17T07:52:10;25.00;99.90
26479;DHT22;14163;-26.142;27.992;2022-10-17T07:54:40;25.00;99.90
26479;DHT22;14163;-26.142;27.992;2022-10-17T07:57:10;25.10;99.90
26479;DHT22;14163;-26.142;27.992;2022-10-17T07:59:43;25.20;99.90
26479;DHT22;14163;-26.142;27.992;2022-10-17T08:02:20;25.20;99.90
26479;DHT22;14163;-26.142;27.992;2022-10-17T08:04:50;25.30;99.90
26479;DHT22;14163;-26.142;27.992;2022-10-17T08:07:20;25.30;99.90
26479;DHT22;14163;-26.142;27.992;2022-10-17T08:09:50;25.40;99.90
26479;DHT22;14163;-26.142;27.992;2022-10-17T08:12:20;25.40;99.90
26479;DHT22;14163;-26.142;27.992;2022-10-17T08:14:53;25.40;99.90
26479;DHT22;14163;-26.142;27.992;2022-10-17T08:17:22;25.40;99.90
26479;DHT22;14163;-26.142;27.992;2022-10-17T08:19:52;25.50;99.90
26479;DHT22;14163;-26.142;27.992;2022-10-17T08:22:22;25.50;99.90
26479;DHT22;14163;-26.142;27.992;2022-10-17T08:24:52;25.30;99.90
26479;DHT22;14163;-26.142;27.992;2022-10-17T08:27:22;25.30;99.90
26479;DHT22;14163;-26.142;27.992;2022-10-17T08:29:56;25.30;99.90
26479;DHT22;14163;-26.142;27.992;2022-10-17T08:32:27;25.10;99.90
26479;DHT22;14163;-26.142;27.992;2022-10-17T08:34:57;25.00;99.90
26479;DHT22;14163;-26.142;27.992;2022-10-17T08:37:30;25.00;99.90
26479;DHT22;14163;-26.142;27.992;2022-10-17T08:40:00;25.10;99.90
26479;DHT22;14163;-26.142;27.992;2022-10-17T08:42:41;25.20;99.90
26479;DHT22;14163;-26.142;27.992;2022-10-17T08:45:23;24.90;99.90
26479;DHT22;14163;-26.142;27.992;2022-10-17T08:47:57;24.90;99.90
26479;DHT22;14163;-26.142;27.992;2022-10-17T08:50:32;24.80;99.90
26479;DHT22;14163;-26.142;27.992;2022-10-17T08:53:08;24.80;99.90
26479;DHT22;14163;-26.142;27.992;2022-10-17T08:55:45;24.90;99.90
26479;DHT22;14163;-26.142;27.992;2022-10-17T08:58:21;25.10;99.90
26479;DHT22;14163;-26.142;27.992;2022-10-17T09:01:01;25.20;99.90
26479;DHT22;14163;-26.142;27.992;2022-10-17T09:03:44;24.90;99.90
26479;DHT22;14163;-26.142;27.992;2022-10-17T09:06:20;24.80;99.90
26479;DHT22;14163;-26.142;27.992;2022-10-17T09:09:06;25.00;99.90
26479;DHT22;14163;-26.142;27.992;2022-10-17T09:12:01;25.10;99.90
26479;DHT22;14163;-26.142;27.992;2022-10-17T09:14:52;24.90;99.90
26479;DHT22;14163;-26.142;27.992;2022-10-17T09:17:32;24.70;99.90
26479;DHT22;14163;-26.142;27.992;2022-10-17T09:20:09;24.70;99.90
26479;DHT22;14163;-26.142;27.992;2022-10-17T09:22:43;24.70;99.90
26479;DHT22;14163;-26.142;27.992;2022-10-17T09:25:17;24.70;99.90
26479;DHT22;14163;-26.142;27.992;2022-10-17T09:27:50;24.90;99.90
26479;DHT22;14163;-26.142;27.992;2022-10-17T09:30:29;25.00;99.90
26479;DHT22;14163;-26.142;27.992;2022-10-17T09:33:07;24.90;99.90
26479;DHT22;14163;-26.142;27.992;2022-10-17T09:35:37;25.10;99.90
26479;DHT22;14163;-26.142;27.992;2022-10-17T09:38:15;25.10;99.90
26479;DHT22;14163;-26.142;27.992;2022-10-17T09:40:48;25.20;99.90
26479;DHT22;14163;-26.142;27.992;2022-10-17T09:43:20;25.40;99.90
26479;DHT22;14163;-26.142;27.992;2022-10-17T09:45:58;25.60;99.90
26479;DHT22;14163;-26.142;27.992;2022-10-17T09:48:34;25.40;99.90
26479;DHT22;14163;-26.142;27.992;2022-10-17T09:51:07;25.20;99.90
26479;DHT22;14163;-26.142;27.992;2022-10-17T09:53:40;25.00;99.90
26479;DHT22;14163;-26.142;27.992;2022-10-17T09:56:13;25.00;99.90
26479;DHT22;14163;-26.142;27.992;2022-10-17T09:58:43;25.20;99.90
26479;DHT22;14163;-26.142;27.992;2022-10-17T10:01:18;25.10;99.90
26479;DHT22;14163;-26.142;27.992;2022-10-17T10:04:08;25.00;99.90
26479;DHT22;14163;-26.142;27.992;2022-10-17T10:06:38;25.20;99.90
26479;DHT22;14163;-26.142;27.992;2022-10-17T10:09:21;25.30;99.90
26479;DHT22;14163;-26.142;27.992;2022-10-17T10:11:54;25.40;99.90
26479;DHT22;14163;-26.142;27.992;2022-10-17T10:14:28;25.50;99.90
26479;DHT22;14163;-26.142;27.992;2022-10-17T10:17:00;25.40;99.90
26479;DHT22;14163;-26.142;27.992;2022-10-17T10:19:32;25.50;99.90
26479;DHT22;14163;-26.142;27.992;2022-10-17T10:22:02;25.50;99.90
26479;DHT22;14163;-26.142;27.992;2022-10-17T10:24:32;25.60;99.90
26479;DHT22;14163;-26.142;27.992;2022-10-17T10:27:02;25.60;99.90
26479;DHT22;14163;-26.142;27.992;2022-10-17T10:29:33;25.50;99.90
26479;DHT22;14163;-26.142;27.992;2022-10-17T10:32:11;25.60;99.90
26479;DHT22;14163;-26.142;27.992;2022-10-17T10:34:48;25.50;99.90
26479;DHT22;14163;-26.142;27.992;2022-10-17T10:37:20;25.50;99.90
26479;DHT22;14163;-26.142;27.992;2022-10-17T10:39:53;25.40;99.90
26479;DHT22;14163;-26.142;27.992;2022-10-17T10:42:28;25.30;99.90
26479;DHT22;14163;-26.142;27.992;2022-10-17T10:45:03;25.20;99.90
26479;DHT22;14163;-26.142;27.992;2022-10-17T10:47:34;25.20;99.90
26479;DHT22;14163;-26.142;27.992;2022-10-17T10:50:17;25.20;99.90
26479;DHT22;14163;-26.142;27.992;2022-10-17T10:52:56;25.10;99.90
26479;DHT22;14163;-26.142;27.992;2022-10-17T10:55:28;25.10;99.90
26479;DHT22;14163;-26.142;27.992;2022-10-17T10:58:02;24.90;99.90
26479;DHT22;14163;-26.142;27.992;2022-10-17T11:00:34;24.90;99.90
26479;DHT22;14163;-26.142;27.992;2022-10-17T11:03:12;24.80;99.90
26479;DHT22;14163;-26.142;27.992;2022-10-17T11:05:48;24.80;99.90
26479;DHT22;14163;-26.142;27.992;2022-10-17T11:08:24;24.90;99.90
26479;DHT22;14163;-26.142;27.992;2022-10-17T11:11:08;25.00;99.90
26479;DHT22;14163;-26.142;27.992;2022-10-17T11:13:47;25.00;99.90
26479;DHT22;14163;-26.142;27.992;2022-10-17T11:16:24;25.10;99.90
26479;DHT22;14163;-26.142;27.992;2022-10-17T11:19:02;25.00;99.90
26479;DHT22;14163;-26.142;27.992;2022-10-17T11:21:40;24.80;99.90
26479;DHT22;14163;-26.142;27.992;2022-10-17T11:24:18;24.80;99.90
26479;DHT22;14163;-26.142;27.992;2022-10-17T11:26:59;25.00;99.90
26479;DHT22;14163;-26.142;27.992;2022-10-17T11:29:31;25.00;99.90
26479;DHT22;14163;-26.142;27.992;2022-10-17T11:32:04;24.90;99.90
26479;DHT22;14163;-26.142;27.992;2022-10-17T11:34:39;24.90;99.90
26479;DHT22;14163;-26.142;27.992;2022-10-17T11:37:16;25.00;99.90
26479;DHT22;14163;-26.142;27.992;2022-10-17T11:39:51;25.00;99.90
26479;DHT22;14163;-26.142;27.992;2022-10-17T11:42:26;25.10;99.90
26479;DHT22;14163;-26.142;27.992;2022-10-17T11:45:00;25.10;99.90
26479;DHT22;14163;-26.142;27.992;2022-10-17T11:47:36;25.20;99.90
26479;DHT22;14163;-26.142;27.992;2022-10-17T11:50:17;25.20;99.90
26479;DHT22;14163;-26.142;27.992;2022-10-17T11:52:53;25.20;99.90
26479;DHT22;14163;-26.142;27.992;2022-10-17T11:55:26;25.10;99.90
26479;DHT22;14163;-26.142;27.992;2022-10-17T11:58:04;24.90;99.90
26479;DHT22;14163;-26.142;27.992;2022-10-17T12:00:54;24.80;99.90
26479;DHT22;14163;-26.142;27.992;2022-10-17T12:03:49;24.70;99.90
26479;DHT22;14163;-26.142;27.992;2022-10-17T12:06:30;24.70;99.90
26479;DHT22;14163;-26.142;27.992;2022-10-17T12:09:10;24.70;99.90
26479;DHT22;14163;-26.142;27.992;2022-10-17T12:11:47;24.60;99.90
26479;DHT22;14163;-26.142;27.992;2022-10-17T12:14:40;24.70;99.90
26479;DHT22;14163;-26.142;27.992;2022-10-17T12:17:29;24.70;99.90
26479;DHT22;14163;-26.142;27.992;2022-10-17T12:20:31;24.60;99.90
26479;DHT22;14163;-26.142;27.992;2022-10-17T12:23:05;24.50;99.90
26479;DHT22;14163;-26.142;27.992;2022-10-17T12:25:52;24.50;99.90
26479;DHT22;14163;-26.142;27.992;2022-10-17T12:28:29;24.30;99.90
26479;DHT22;14163;-26.142;27.992;2022-10-17T12:31:01;24.50;99.90
26479;DHT22;14163;-26.142;27.992;2022-10-17T12:33:33;24.70;99.90
26479;DHT22;14163;-26.142;27.992;2022-10-17T12:42:47;24.70;99.90
26479;DHT22;14163;-26.142;27.992;2022-10-17T12:45:50;24.80;99.90
26479;DHT22;14163;-26.142;27.992;2022-10-17T12:48:59;24.80;99.90
26479;DHT22;14163;-26.142;27.992;2022-10-17T12:51:29;24.70;99.90
26479;DHT22;14163;-26.142;27.992;2022-10-17T12:54:19;24.80;99.90
26479;DHT22;14163;-26.142;27.992;2022-10-17T12:56:49;24.80;99.90
26479;DHT22;14163;-26.142;27.992;2022-10-17T12:59:24;24.80;99.90
26479;DHT22;14163;-26.142;27.992;2022-10-17T13:01:55;24.80;99.90
26479;DHT22;14163;-26.142;27.992;2022-10-17T13:04:25;25.00;99.90
26479;DHT22;14163;-26.142;27.992;2022-10-17T13:06:57;25.00;99.90
26479;DHT22;14163;-26.142;27.992;2022-10-17T13:09:29;25.00;99.90
26479;DHT22;14163;-26.142;27.992;2022-10-17T13:12:00;25.10;99.90
26479;DHT22;14163;-26.142;27.992;2022-10-17T13:14:33;25.10;99.90
26479;DHT22;14163;-26.142;27.992;2022-10-17T13:17:03;25.10;99.90
26479;DHT22;14163;-26.142;27.992;2022-10-17T13:19:40;25.20;99.90
26479;DHT22;14163;-26.142;27.992;2022-10-17T13:22:14;25.20;99.90
26479;DHT22;14163;-26.142;27.992;2022-10-17T13:24:44;25.10;99.90
26479;DHT22;14163;-26.142;27.992;2022-10-17T13:27:25;24.90;99.90
26479;DHT22;14163;-26.142;27.992;2022-10-17T13:29:57;24.80;99.90
26479;DHT22;14163;-26.142;27.992;2022-10-17T13:32:35;24.80;99.90
26479;DHT22;14163;-26.142;27.992;2022-10-17T13:35:06;24.70;99.90
26479;DHT22;14163;-26.142;27.992;2022-10-17T13:37:36;24.80;99.90
26479;DHT22;14163;-26.142;27.992;2022-10-17T13:40:13;24.80;99.90
26479;DHT22;14163;-26.142;27.992;2022-10-17T13:42:43;24.80;99.90
26479;DHT22;14163;-26.142;27.992;2022-10-17T13:45:18;24.70;99.90
26479;DHT22;14163;-26.142;27.992;2022-10-17T13:47:49;24.70;99.90
26479;DHT22;14163;-26.142;27.992;2022-10-17T13:50:26;24.80;99.90
26479;DHT22;14163;-26.142;27.992;2022-10-17T13:53:17;24.80;99.90
26479;DHT22;14163;-26.142;27.992;2022-10-17T13:55:56;24.90;99.90
26479;DHT22;14163;-26.142;27.992;2022-10-17T13:58:28;25.00;99.90
26479;DHT22;14163;-26.142;27.992;2022-10-17T14:01:00;25.10;99.90
26479;DHT22;14163;-26.142;27.992;2022-10-17T14:03:29;25.10;99.90
26479;DHT22;14163;-26.142;27.992;2022-10-17T14:06:10;25.10;99.90
26479;DHT22;14163;-26.142;27.992;2022-10-17T14:08:53;25.10;99.90
26479;DHT22;14163;-26.142;27.992;2022-10-17T14:11:31;25.20;99.90
26479;DHT22;14163;-26.142;27.992;2022-10-17T14:14:01;25.30;99.90
26479;DHT22;14163;-26.142;27.992;2022-10-17T14:16:38;25.30;99.90
26479;DHT22;14163;-26.142;27.992;2022-10-17T14:19:18;25.30;99.90
26479;DHT22;14163;-26.142;27.992;2022-10-17T14:21:53;25.40;99.90
26479;DHT22;14163;-26.142;27.992;2022-10-17T14:24:29;25.40;99.90
26479;DHT22;14163;-26.142;27.992;2022-10-17T14:26:59;25.50;99.90
26479;DHT22;14163;-26.142;27.992;2022-10-17T14:29:30;25.50;99.90
26479;DHT22;14163;-26.142;27.992;2022-10-17T14:32:04;25.60;99.90
26479;DHT22;14163;-26.142;27.992;2022-10-17T14:34:38;25.60;99.90
26479;DHT22;14163;-26.142;27.992;2022-10-17T14:37:09;25.50;99.90
26479;DHT22;14163;-26.142;27.992;2022-10-17T14:39:40;25.50;99.90
26479;DHT22;14163;-26.142;27.992;2022-10-17T14:42:18;25.50;99.90
26479;DHT22;14163;-26.142;27.992;2022-10-17T14:44:49;25.60;99.90
26479;DHT22;14163;-26.142;27.992;2022-10-17T14:47:25;25.70;99.90
26479;DHT22;14163;-26.142;27.992;2022-10-17T14:50:01;25.70;99.90
26479;DHT22;14163;-26.142;27.992;2022-10-17T14:52:30;25.80;99.90
26479;DHT22;14163;-26.142;27.992;2022-10-17T14:54:59;25.90;99.90
26479;DHT22;14163;-26.142;27.992;2022-10-17T14:57:40;25.80;99.90
26479;DHT22;14163;-26.142;27.992;2022-10-17T15:00:14;25.80;99.90
26479;DHT22;14163;-26.142;27.992;2022-10-17T15:02:46;25.70;99.90
26479;DHT22;14163;-26.142;27.992;2022-10-17T15:05:17;25.60;99.90
26479;DHT22;14163;-26.142;27.992;2022-10-17T15:07:49;25.50;99.90
26479;DHT22;14163;-26.142;27.992;2022-10-17T15:10:26;25.50;99.90
26479;DHT22;14163;-26.142;27.992;2022-10-17T15:12:56;25.40;99.90
26479;DHT22;14163;-26.142;27.992;2022-10-17T15:15:26;25.30;99.90
26479;DHT22;14163;-26.142;27.992;2022-10-17T15:18:00;25.30;99.90
26479;DHT22;14163;-26.142;27.992;2022-10-17T15:20:29;25.20;99.90
26479;DHT22;14163;-26.142;27.992;2022-10-17T15:23:00;25.20;99.90
26479;DHT22;14163;-26.142;27.992;2022-10-17T15:25:30;25.30;99.90
26479;DHT22;14163;-26.142;27.992;2022-10-17T15:28:00;25.30;99.90
26479;DHT22;14163;-26.142;27.992;2022-10-17T15:30:30;25.30;99.90
26479;DHT22;14163;-26.142;27.992;2022-10-17T15:33:01;25.40;99.90
26479;DHT22;14163;-26.142;27.992;2022-10-17T15:35:31;25.50;99.90
26479;DHT22;14163;-26.142;27.992;2022-10-17T15:38:00;25.50;99.90
26479;DHT22;14163;-26.142;27.992;2022-10-17T15:40:29;25.50;99.90
26479;DHT22;14163;-26.142;27.992;2022-10-17T15:42:58;25.50;99.90
26479;DHT22;14163;-26.142;27.992;2022-10-17T15:45:27;25.50;99.90
26479;DHT22;14163;-26.142;27.992;2022-10-17T15:48:06;25.50;99.90
26479;DHT22;14163;-26.142;27.992;2022-10-17T15:50:35;25.50;99.90
26479;DHT22;14163;-26.142;27.992;2022-10-17T15:53:07;25.50;99.90
26479;DHT22;14163;-26.142;27.992;2022-10-17T15:55:39;25.50;99.90